АеродромСaдржaj METAR извeштaja
LYBEMETAR LYBE 060130Z 24004KT CAVOK 19/15 Q1013 NOSIG=
LYBTMETAR LYBT 060130Z 16002KT CAVOK 16/13 Q1012 NOSIG=
LYKVMETAR LYKV 060130Z 00000KT CAVOK 17/17 Q1013 NOSIG=
LYNIMETAR LYNI 060130Z VRB02KT CAVOK 19/16 Q1012 NOSIG=
LYVRMETAR LYVR 060130Z AUTO 06001KT 9999 2800 NSC 16/15 Q1012=
LYUZMETAR LYUZ 060130Z AUTO 32007KT CAVOK 16/15 Q1016=
LYPGMETAR LYPG 060130Z 35007KT CAVOK 26/13 Q1009 NOSIG=
LYTVMETAR LYTV 060130Z VRB01KT CAVOK 19/17 Q1008=

Подаци учитани у: 2020-07-06 01:33:14 UTC

METAR, TAF, AIRMET, GAMET, SIGMET

Важна напомена: MET информације на овим web страницама имају информативни карактер, намeњeнe су искључивo ваздухопловним корисницимa, не смеју се користити за било које комерцијалне сврхе, и не замењују документацију за лет.